Time;durP1;ratioP1;P1;durP2;ratioP2;P2;SDS_P1;SDS_P2;PMS_P1;PMS_P2;Temp;Humidity;BMP_temperature;BMP_pressure;BME280_temperature;BME280_humidity;BME280_pressure;Samples;Min_cycle;Max_cycle;Signal;HPM_P1;HPM_P2
2023/06/28 00:01:53;;;;;;;5.55;1.70;;;;;;;12.54;100.00;101052.13;4855354;29;20509;-85
2023/06/28 00:04:19;;;;;;;7.25;2.28;;;;;;;12.52;100.00;101050.41;4840515;29;20413;-85
2023/06/28 00:06:46;;;;;;;4.80;1.65;;;;;;;12.49;100.00;101046.06;4875413;29;20045;-86
2023/06/28 00:09:12;;;;;;;7.45;2.10;;;;;;;12.47;100.00;101052.22;4839946;29;20527;-85
2023/06/28 00:11:39;;;;;;;2.50;2.15;;;;;;;12.43;100.00;101050.50;4857734;29;20052;-84
2023/06/28 00:14:05;;;;;;;7.80;1.88;;;;;;;12.42;100.00;101049.63;4881335;29;20060;-83
2023/06/28 00:16:32;;;;;;;4.88;2.38;;;;;;;12.39;100.00;101054.91;4861944;29;20044;-85
2023/06/28 00:19:00;;;;;;;4.82;2.25;;;;;;;12.35;100.00;101058.47;4865454;29;20529;-83
2023/06/28 00:21:28;;;;;;;4.45;1.63;;;;;;;12.33;100.00;101062.84;4855551;29;20033;-84
2023/06/28 00:23:55;;;;;;;3.00;1.80;;;;;;;12.33;100.00;101054.97;4863895;29;20053;-84
2023/06/28 00:26:22;;;;;;;7.22;1.80;;;;;;;12.30;100.00;101055.00;4853714;29;20053;-84
2023/06/28 00:28:49;;;;;;;8.02;2.38;;;;;;;12.28;100.00;101062.91;4874920;29;20049;-84
2023/06/28 00:31:15;;;;;;;3.22;1.80;;;;;;;12.27;100.00;101061.16;4845742;29;20053;-85
2023/06/28 00:33:42;;;;;;;5.63;2.45;;;;;;;12.23;100.00;101062.94;4852482;29;20045;-84
2023/06/28 00:36:08;;;;;;;5.50;2.50;;;;;;;12.20;100.00;101064.72;4857311;29;20508;-84
2023/06/28 00:38:36;;;;;;;5.40;2.13;;;;;;;12.17;100.00;101070.84;4860030;29;20072;-85
2023/06/28 00:41:02;;;;;;;7.10;2.33;;;;;;;12.17;100.00;101070.84;4863627;29;20041;-84
2023/06/28 00:43:28;;;;;;;3.83;1.42;;;;;;;12.12;100.00;101070.03;4845270;29;20049;-83
2023/06/28 00:45:55;;;;;;;12.80;3.15;;;;;;;12.11;100.00;101070.94;4848855;29;20056;-83
2023/06/28 00:48:22;;;;;;;3.90;1.48;;;;;;;12.12;100.00;101069.16;4861463;29;20054;-82
2023/06/28 00:50:49;;;;;;;23.55;2.70;;;;;;;12.10;100.00;101070.94;4874729;29;20065;-84
2023/06/28 00:53:16;;;;;;;4.35;1.65;;;;;;;12.06;100.00;101064.84;4841635;29;20056;-85
2023/06/28 00:55:43;;;;;;;11.32;2.63;;;;;;;12.04;100.00;101056.13;4842479;29;20056;-84
2023/06/28 00:58:10;;;;;;;6.93;2.38;;;;;;;12.05;100.00;101066.59;4861104;29;20053;-83
2023/06/28 01:00:36;;;;;;;5.78;1.98;;;;;;;12.06;100.00;101077.97;4854378;29;20041;-84
2023/06/28 01:03:04;;;;;;;2.15;1.60;;;;;;;12.08;100.00;101074.47;4871886;29;20059;-84
2023/06/28 01:05:30;;;;;;;4.88;1.77;;;;;;;12.05;100.00;101068.34;4853861;29;20045;-85
2023/06/28 01:07:57;;;;;;;6.15;2.47;;;;;;;12.04;100.00;101075.34;4851434;29;20056;-84
2023/06/28 01:10:24;;;;;;;4.15;2.15;;;;;;;12.02;100.00;101064.00;4865084;29;20060;-85
2023/06/28 01:12:51;;;;;;;9.57;2.47;;;;;;;12.08;100.00;101070.94;4842436;29;20401;-84
2023/06/28 01:15:18;;;;;;;7.18;2.50;;;;;;;12.04;100.00;101064.84;4854973;29;20076;-84
2023/06/28 01:17:44;;;;;;;5.30;2.92;;;;;;;12.05;100.00;101073.59;4846241;29;20449;-84
2023/06/28 01:20:11;;;;;;;7.72;2.50;;;;;;;12.04;100.00;101072.72;4839023;29;20041;-84
2023/06/28 01:22:41;;;;;;;13.10;2.25;;;;;;;12.04;100.00;101071.84;4857415;29;20112;-84
2023/06/28 01:25:10;;;;;;;6.70;2.10;;;;;;;12.06;100.00;101075.34;4852934;29;20159;-84
2023/06/28 01:27:40;;;;;;;5.68;1.80;;;;;;;12.08;100.00;101076.19;4841104;29;20139;-84
2023/06/28 01:30:10;;;;;;;4.07;2.17;;;;;;;12.08;100.00;101077.09;4851124;29;20369;-84
2023/06/28 01:32:37;;;;;;;8.32;2.70;;;;;;;12.11;100.00;101078.81;4852354;29;20523;-84
2023/06/28 01:35:04;;;;;;;16.40;3.47;;;;;;;12.07;100.00;101075.34;4841966;29;20041;-84
2023/06/28 01:37:31;;;;;;;2.85;2.55;;;;;;;12.06;100.00;101080.59;4843124;29;20060;-84
2023/06/28 01:39:58;;;;;;;8.00;2.92;;;;;;;12.05;100.00;101084.97;4870929;29;20060;-84
2023/06/28 01:42:25;;;;;;;2.42;2.22;;;;;;;12.05;100.00;101084.09;4843578;29;20091;-85
2023/06/28 01:44:51;;;;;;;4.05;2.25;;;;;;;12.03;100.00;101084.13;4841214;29;20508;-84
2023/06/28 01:47:18;;;;;;;7.30;2.20;;;;;;;12.02;100.00;101085.00;4856349;29;20933;-84
2023/06/28 01:49:44;;;;;;;5.43;2.03;;;;;;;12.02;100.00;101086.72;4858557;29;20513;-84
2023/06/28 01:52:11;;;;;;;5.93;2.58;;;;;;;12.00;100.00;101089.38;4857028;29;20073;-84
2023/06/28 01:54:37;;;;;;;5.20;2.58;;;;;;;12.00;100.00;101091.13;4847652;29;20136;-85
2023/06/28 01:57:04;;;;;;;2.10;1.90;;;;;;;11.96;100.00;101084.19;4859023;29;20051;-84
2023/06/28 01:59:31;;;;;;;8.57;2.38;;;;;;;11.94;100.00;101086.75;4868257;29;20053;-84
2023/06/28 02:01:58;;;;;;;6.95;3.28;;;;;;;11.95;100.00;101087.66;4835020;29;20551;-84
2023/06/28 02:04:24;;;;;;;5.05;2.50;;;;;;;11.95;100.00;101083.28;4846522;29;20053;-83
2023/06/28 02:06:51;;;;;;;9.43;2.90;;;;;;;11.96;100.00;101084.19;4842407;29;20461;-84
2023/06/28 02:09:17;;;;;;;7.53;2.92;;;;;;;11.96;100.00;101087.66;4873470;29;20072;-84
2023/06/28 02:11:44;;;;;;;6.63;2.40;;;;;;;11.97;100.00;101085.91;4841503;29;20048;-84
2023/06/28 02:14:10;;;;;;;6.10;3.30;;;;;;;11.91;100.00;101094.66;4845298;29;20487;-83
2023/06/28 02:16:37;;;;;;;10.43;2.55;;;;;;;11.87;100.00;101087.69;4844495;29;20053;-85
2023/06/28 02:19:04;;;;;;;5.60;2.78;;;;;;;11.86;100.00;101080.72;4861064;29;20053;-84
2023/06/28 02:21:30;;;;;;;4.70;2.65;;;;;;;11.83;100.00;101076.34;4850336;29;20049;-83
2023/06/28 02:23:57;;;;;;;7.05;3.13;;;;;;;11.84;100.00;101074.63;4845184;29;20071;-84
2023/06/28 02:26:23;;;;;;;7.53;2.60;;;;;;;11.84;100.00;101083.34;4844797;29;20068;-84
2023/06/28 02:28:50;;;;;;;5.95;2.22;;;;;;;11.80;100.00;101080.75;4835578;29;20056;-83
2023/06/28 02:31:17;;;;;;;7.13;3.67;;;;;;;11.78;100.00;101079.91;4841479;29;20052;-84
2023/06/28 02:33:43;;;;;;;7.55;2.78;;;;;;;11.77;100.00;101086.03;4867628;29;20057;-84
2023/06/28 02:36:10;;;;;;;4.20;2.45;;;;;;;11.75;100.00;101080.78;4833794;29;20588;-84
2023/06/28 02:38:36;;;;;;;3.65;2.33;;;;;;;11.77;100.00;101084.25;4845101;29;20055;-84
2023/06/28 02:41:03;;;;;;;4.40;2.50;;;;;;;11.75;100.00;101081.66;4877033;29;20049;-84
2023/06/28 02:43:29;;;;;;;4.88;2.20;;;;;;;11.71;100.00;101076.47;4845242;29;20049;-85
2023/06/28 02:45:56;;;;;;;4.03;1.98;;;;;;;11.68;100.00;101079.09;4847884;29;20089;-85
2023/06/28 02:48:22;;;;;;;5.15;2.20;;;;;;;11.67;100.00;101077.38;4861653;29;20060;-83
2023/06/28 02:50:49;;;;;;;4.40;2.17;;;;;;;11.66;100.00;101081.72;4860671;29;20037;-85
2023/06/28 02:53:15;;;;;;;8.80;3.03;;;;;;;11.67;100.00;101090.47;4868958;29;20057;-84
2023/06/28 02:55:42;;;;;;;11.25;3.00;;;;;;;11.72;100.00;101088.66;4866478;29;20075;-84
2023/06/28 02:58:09;;;;;;;4.90;2.70;;;;;;;11.72;100.00;101088.66;4838486;29;20063;-84
2023/06/28 03:00:37;;;;;;;9.18;2.88;;;;;;;11.70;100.00;101090.44;4861065;29;20073;-84
2023/06/28 03:03:09;;;;;;;5.00;2.65;;;;;;;11.69;100.00;101086.97;4849524;29;20049;-84
2023/06/28 03:05:36;;;;;;;8.38;2.33;;;;;;;11.68;100.00;101092.19;4860630;29;20049;-85
2023/06/28 03:08:04;;;;;;;8.27;3.10;;;;;;;11.67;100.00;101098.34;4880645;29;20758;-85
2023/06/28 03:10:31;;;;;;;9.05;2.80;;;;;;;11.68;100.00;101092.19;4876415;29;20060;-84
2023/06/28 03:12:57;;;;;;;8.48;3.28;;;;;;;11.68;100.00;101090.47;4850695;29;20045;-85
2023/06/28 03:15:24;;;;;;;3.78;2.38;;;;;;;11.68;100.00;101093.09;4851308;29;20092;-84
2023/06/28 03:17:51;;;;;;;4.95;2.53;;;;;;;11.68;100.00;101092.19;4857826;29;20045;-86
2023/06/28 03:20:20;;;;;;;4.50;2.35;;;;;;;11.67;100.00;101093.09;4851884;29;20049;-84
2023/06/28 03:22:46;;;;;;;4.32;2.13;;;;;;;11.66;100.00;101092.22;4854041;29;20049;-84
2023/06/28 03:25:13;;;;;;;4.22;2.92;;;;;;;11.67;100.00;101096.56;4874842;29;20053;-85
2023/06/28 03:27:39;;;;;;;4.47;2.30;;;;;;;11.68;100.00;101092.19;4842155;29;20140;-84
2023/06/28 03:30:07;;;;;;;7.63;2.65;;;;;;;11.68;100.00;101090.47;4861820;29;20132;-85
2023/06/28 03:32:33;;;;;;;9.25;3.22;;;;;;;11.69;100.00;101097.44;4846507;29;20101;-84
2023/06/28 03:35:00;;;;;;;6.50;2.58;;;;;;;11.70;100.00;101093.94;4858693;29;20050;-84
2023/06/28 03:37:26;;;;;;;9.50;2.70;;;;;;;11.71;100.00;101094.81;4860128;29;20543;-83
2023/06/28 03:39:53;;;;;;;5.65;3.85;;;;;;;11.72;100.00;101097.41;4858473;29;20110;-84
2023/06/28 03:42:19;;;;;;;6.15;3.13;;;;;;;11.70;100.00;101088.69;4840183;29;20092;-85
2023/06/28 03:44:46;;;;;;;4.57;2.75;;;;;;;11.71;100.00;101085.19;4847053;29;20053;-83
2023/06/28 03:47:12;;;;;;;5.60;2.85;;;;;;;11.74;100.00;101084.28;4862441;29;20042;-84
2023/06/28 03:49:40;;;;;;;7.28;3.50;;;;;;;11.76;100.00;101085.16;4843854;29;20053;-85
2023/06/28 03:52:06;;;;;;;4.38;2.72;;;;;;;11.76;100.00;101079.91;4856317;29;20049;-84
2023/06/28 03:54:33;;;;;;;9.25;2.83;;;;;;;11.78;100.00;101083.38;4857923;29;20133;-83
2023/06/28 03:56:59;;;;;;;5.82;3.35;;;;;;;11.82;100.00;101079.00;4840394;29;20470;-84
2023/06/28 03:59:26;;;;;;;5.45;3.25;;;;;;;11.84;100.00;101078.09;4861012;29;20140;-84
2023/06/28 04:01:52;;;;;;;3.42;2.88;;;;;;;11.89;100.00;101085.94;4854211;29;20476;-86
2023/06/28 04:04:19;;;;;;;6.90;3.03;;;;;;;11.91;100.00;101084.16;4852560;29;20110;-85
2023/06/28 04:06:46;;;;;;;3.70;2.67;;;;;;;11.97;100.00;101070.16;4848153;29;20050;-85
2023/06/28 04:09:12;;;;;;;7.13;3.08;;;;;;;12.01;100.00;101082.41;4860333;29;20057;-85
2023/06/28 04:11:39;;;;;;;7.00;2.95;;;;;;;12.05;100.00;101086.72;4857839;29;20040;-85
2023/06/28 04:14:06;;;;;;;7.20;2.67;;;;;;;12.12;100.00;101092.78;4838433;29;20057;-86
2023/06/28 04:16:32;;;;;;;5.10;2.35;;;;;;;12.15;100.00;101095.38;4856955;29;20129;-83
2023/06/28 04:19:00;;;;;;;6.93;2.55;;;;;;;12.18;100.00;101096.22;4838419;29;20053;-86
2023/06/28 04:21:27;;;;;;;6.68;3.58;;;;;;;12.22;100.00;101092.69;4858057;29;20482;-84
2023/06/28 04:23:53;;;;;;;5.63;3.22;;;;;;;12.30;100.00;101100.50;4865679;29;20063;-84
2023/06/28 04:26:20;;;;;;;3.63;2.83;;;;;;;12.36;100.00;101089.09;4843015;29;20065;-86
2023/06/28 04:28:46;;;;;;;4.63;2.75;;;;;;;12.44;100.00;101096.88;4857298;29;20105;-85
2023/06/28 04:31:14;;;;;;;9.25;2.42;;;;;;;12.50;100.00;101087.19;4856247;29;20042;-85
2023/06/28 04:33:40;;;;;;;5.95;2.83;;;;;;;12.55;100.00;101090.66;4843655;29;20609;-83
2023/06/28 04:36:07;;;;;;;3.25;1.95;;;;;;;12.63;100.00;101101.03;4840027;29;20050;-84
2023/06/28 04:38:33;;;;;;;6.95;2.65;;;;;;;12.70;100.00;101094.00;4840107;29;20053;-84
2023/06/28 04:41:00;;;;;;;4.50;2.05;;;;;;;12.77;100.00;101097.44;4839480;29;20060;-84
2023/06/28 04:43:27;;;;;;;2.70;2.47;;;;;;;12.84;100.00;101097.34;4832810;29;20783;-85
2023/06/28 04:46:05;;;;;;;7.85;3.00;;;;;;;12.89;100.00;101090.28;4851154;29;20207;-84
2023/06/28 04:48:32;;;;;;;4.45;2.35;;;;;;;12.95;100.00;101091.09;4840970;29;20493;-85
2023/06/28 04:50:58;;;;;;;4.63;2.55;;;;;;;12.99;100.00;101090.16;4838916;29;20073;-86
2023/06/28 04:53:25;;;;;;;4.15;2.50;;;;;;;13.04;100.00;101097.09;4854396;29;20057;-86
2023/06/28 04:55:51;;;;;;;3.72;2.53;;;;;;;13.09;100.00;101091.81;4849593;29;20413;-85
2023/06/28 04:58:18;;;;;;;10.07;2.50;;;;;;;13.13;100.00;101087.34;4856045;29;20081;-86
2023/06/28 05:00:45;;;;;;;5.00;2.25;;;;;;;13.18;100.00;101090.78;4841301;29;20049;-84
2023/06/28 05:03:14;;;;;;;5.50;2.60;;;;;;;13.20;100.00;101083.78;4863395;29;20049;-85
2023/06/28 05:05:44;;;;;;;7.80;2.42;;;;;;;13.26;100.00;101088.97;4846288;29;20139;-86
2023/06/28 05:08:10;;;;;;;4.82;2.55;;;;;;;13.33;100.00;101095.00;4838528;29;20209;-86
2023/06/28 05:10:37;;;;;;;6.03;2.72;;;;;;;13.39;100.00;101092.31;4839132;29;20139;-84
2023/06/28 05:13:06;;;;;;;5.13;2.20;;;;;;;13.44;100.00;101087.00;4859359;29;20042;-84
2023/06/28 05:15:33;;;;;;;4.55;2.80;;;;;;;13.51;100.00;101081.63;4843158;29;20060;-86
2023/06/28 05:18:05;;;;;;;7.55;2.35;;;;;;;13.55;100.00;101087.72;4852294;29;20105;-86
2023/06/28 05:20:32;;;;;;;8.10;2.83;;;;;;;13.60;100.00;101083.25;4842027;29;20077;-86
2023/06/28 05:23:16;;;;;;;8.30;2.45;;;;;;;13.66;100.00;101088.44;4839272;29;20416;-85
2023/06/28 05:25:45;;;;;;;5.03;2.60;;;;;;;13.70;100.00;101094.50;4858470;29;20049;-87
2023/06/28 05:28:13;;;;;;;6.75;2.47;;;;;;;13.76;100.00;101094.41;4870972;29;20512;-86
2023/06/28 05:30:44;;;;;;;7.25;2.30;;;;;;;13.79;100.00;101090.88;4857941;29;20064;-85
2023/06/28 05:33:13;;;;;;;8.38;2.88;;;;;;;13.82;100.00;101082.91;4856576;29;20053;-84
2023/06/28 05:35:39;;;;;;;7.38;2.53;;;;;;;13.84;100.00;101097.78;4861319;29;20069;-85
2023/06/28 05:38:07;;;;;;;8.05;2.80;;;;;;;13.87;100.00;101089.88;4853559;29;20406;-86
2023/06/28 05:40:34;;;;;;;6.05;2.40;;;;;;;13.90;100.00;101094.22;4855118;29;20762;-86
2023/06/28 05:43:01;;;;;;;7.47;2.47;;;;;;;13.92;100.00;101088.91;4839259;29;20064;-86
2023/06/28 05:45:29;;;;;;;10.50;2.60;;;;;;;13.94;100.00;101097.66;4854284;29;20049;-86
2023/06/28 05:47:57;;;;;;;5.05;2.70;;;;;;;13.99;100.00;101094.06;4867184;29;20050;-87
2023/06/28 05:50:23;;;;;;;4.85;2.50;;;;;;;14.06;100.00;101089.56;4841688;29;20041;-85
2023/06/28 05:52:51;;;;;;;8.50;2.40;;;;;;;14.11;100.00;101093.00;4856453;29;20049;-83
2023/06/28 05:55:17;;;;;;;5.60;2.30;;;;;;;14.20;100.00;101098.09;4857706;29;20054;-85
2023/06/28 05:57:46;;;;;;;7.00;2.47;;;;;;;14.25;100.00;101092.75;4855435;29;20037;-83
2023/06/28 06:00:13;;;;;;;8.82;2.83;;;;;;;14.34;100.00;101082.06;4842168;29;20501;-84
2023/06/28 06:02:40;;;;;;;7.93;2.83;;;;;;;14.35;100.00;101083.81;4841118;29;20144;-84
2023/06/28 06:05:06;;;;;;;6.93;2.47;;;;;;;14.41;100.00;101079.34;4840200;29;20050;-85
2023/06/28 06:07:34;;;;;;;3.88;2.05;;;;;;;14.48;100.00;101080.94;4855867;29;20148;-85
2023/06/28 06:10:00;;;;;;;8.38;3.67;;;;;;;14.53;100.00;101074.69;4843290;29;20727;-85
2023/06/28 06:12:27;;;;;;;6.57;2.70;;;;;;;14.61;100.00;101074.53;4844590;29;20415;-85
2023/06/28 06:14:56;;;;;;;4.15;1.60;;;;;;;14.71;100.00;101080.56;4838022;29;20144;-85
2023/06/28 06:17:24;;;;;;;5.32;2.90;;;;;;;14.78;100.00;101082.16;4843518;29;20050;-85
2023/06/28 06:19:52;;;;;;;9.60;2.55;;;;;;;14.82;100.00;101069.78;4841885;29;20482;-84
2023/06/28 06:22:19;;;;;;;4.70;2.13;;;;;;;14.87;100.00;101076.72;4847758;29;20156;-85
2023/06/28 06:24:46;;;;;;;7.78;3.03;;;;;;;14.91;100.00;101074.00;4846068;29;20045;-85
2023/06/28 06:27:13;;;;;;;5.60;3.00;;;;;;;14.99;100.00;101075.59;4863515;29;20053;-85
2023/06/28 06:29:40;;;;;;;4.32;2.08;;;;;;;15.03;100.00;101081.66;4861945;29;20053;-84
2023/06/28 06:32:07;;;;;;;7.70;2.42;;;;;;;15.10;100.00;101082.44;4857631;29;20589;-85
2023/06/28 06:34:34;;;;;;;7.22;2.38;;;;;;;15.13;100.00;101077.06;4846448;29;20064;-85
2023/06/28 06:37:00;;;;;;;10.82;2.80;;;;;;;15.20;100.00;101086.56;4860215;29;20144;-84
2023/06/28 06:39:27;;;;;;;9.10;3.08;;;;;;;15.26;100.00;101086.44;4877907;29;20041;-84
2023/06/28 06:41:53;;;;;;;4.93;2.05;;;;;;;15.33;100.00;101085.44;4843615;29;20045;-83
2023/06/28 06:44:24;;;;;;;11.27;2.30;;;;;;;15.41;100.00;101087.91;4847028;29;20049;-84
2023/06/28 06:46:50;;;;;;;5.43;2.58;;;;;;;15.50;98.70;101082.41;4846329;29;20048;-83
2023/06/28 06:49:18;;;;;;;7.43;2.13;;;;;;;15.49;98.80;101087.72;4844519;29;20437;-84
2023/06/28 06:51:48;;;;;;;4.50;2.10;;;;;;;15.53;98.75;101092.03;4839172;29;20486;-84
2023/06/28 06:54:15;;;;;;;9.48;2.95;;;;;;;15.61;98.07;101097.16;4846076;29;20113;-83
2023/06/28 06:56:41;;;;;;;10.20;2.50;;;;;;;15.64;97.54;101097.91;4862886;29;20401;-83
2023/06/28 06:59:07;;;;;;;6.28;2.05;;;;;;;15.77;97.20;101100.28;4856171;29;20044;-87
2023/06/28 07:01:35;;;;;;;10.38;1.80;;;;;;;15.83;95.73;101095.75;4877885;29;20230;-84
2023/06/28 07:04:01;;;;;;;7.00;1.88;;;;;;;15.88;95.90;101103.59;4846820;29;20194;-83
2023/06/28 07:06:28;;;;;;;4.72;2.00;;;;;;;15.96;95.65;101098.13;4882251;29;20162;-84
2023/06/28 07:08:54;;;;;;;6.32;1.98;;;;;;;16.07;94.25;101103.97;4850096;29;20041;-83
2023/06/28 07:11:23;;;;;;;5.95;1.77;;;;;;;16.16;94.01;101108.19;4865306;29;20509;-86
2023/06/28 07:13:50;;;;;;;3.75;1.63;;;;;;;16.21;92.68;101112.44;4867695;29;20045;-89
2023/06/28 07:16:17;;;;;;;6.90;1.77;;;;;;;16.23;92.52;101104.50;4854483;29;20048;-86
2023/06/28 07:18:46;;;;;;;3.85;1.85;;;;;;;16.31;91.80;101110.44;4884066;29;20055;-87
2023/06/28 07:21:15;;;;;;;9.10;2.40;;;;;;;16.42;90.90;101112.78;4873547;29;20045;-85
2023/06/28 07:23:42;;;;;;;4.30;2.65;;;;;;;16.57;89.72;101114.19;4854295;29;20045;-85
2023/06/28 07:26:08;;;;;;;4.32;2.10;;;;;;;16.74;88.97;101121.66;4851429;29;20078;-85
2023/06/28 07:28:35;;;;;;;7.38;1.73;;;;;;;17.06;86.87;101116.41;4848709;29;20044;-85
2023/06/28 07:31:02;;;;;;;5.60;1.73;;;;;;;17.58;85.14;101106.06;4856588;29;20045;-86
2023/06/28 07:33:29;;;;;;;4.70;1.88;;;;;;;18.20;83.08;101102.34;4863031;29;20045;-85
2023/06/28 07:35:55;;;;;;;6.72;1.98;;;;;;;18.85;79.38;101106.22;4856986;29;20051;-86
2023/06/28 07:38:26;;;;;;;2.17;1.17;;;;;;;19.47;76.29;101113.72;4876271;29;20045;-87
2023/06/28 07:40:53;;;;;;;3.55;1.27;;;;;;;20.06;73.10;101108.75;4860718;29;20041;-86
2023/06/28 07:43:26;;;;;;;2.50;0.98;;;;;;;20.53;67.58;101105.00;4860158;29;20143;-86
2023/06/28 07:45:53;;;;;;;4.65;1.23;;;;;;;20.90;68.04;101108.69;4866605;29;20071;-87
2023/06/28 07:48:24;;;;;;;2.00;0.88;;;;;;;21.21;63.51;101102.88;4873842;29;20754;-87
2023/06/28 07:50:54;;;;;;;3.15;0.82;;;;;;;21.13;63.37;101099.69;4856879;29;20084;-87
2023/06/28 07:53:27;;;;;;;3.58;0.70;;;;;;;21.15;63.13;101105.81;4875382;29;20075;-86
2023/06/28 07:55:54;;;;;;;6.07;1.00;;;;;;;21.72;61.76;101104.94;4869725;29;20045;-86
2023/06/28 07:58:21;;;;;;;2.20;0.57;;;;;;;22.30;59.12;101102.03;4853184;29;20424;-86
2023/06/28 08:00:48;;;;;;;4.45;1.77;;;;;;;22.90;55.15;101100.72;4857537;29;20050;-87
2023/06/28 08:03:15;;;;;;;1.35;0.57;;;;;;;22.93;52.07;101100.59;4852232;29;20064;-86
2023/06/28 08:05:45;;;;;;;3.25;1.30;;;;;;;23.04;49.42;101091.97;4854926;29;20046;-86
2023/06/28 08:08:12;;;;;;;3.95;1.50;;;;;;;23.21;49.50;101099.09;4882249;29;20093;-85
2023/06/28 08:10:39;;;;;;;3.33;0.82;;;;;;;23.58;48.91;101106.88;4862781;29;20048;-87
2023/06/28 08:13:05;;;;;;;2.35;1.05;;;;;;;23.92;48.38;101105.84;4863993;29;20095;-85
2023/06/28 08:15:36;;;;;;;2.40;0.88;;;;;;;24.39;45.82;101112.03;4871052;29;20025;-85
2023/06/28 08:18:05;;;;;;;2.40;1.10;;;;;;;24.38;45.52;101102.25;4877649;29;20029;-86
2023/06/28 08:20:33;;;;;;;1.88;1.17;;;;;;;23.85;44.96;101098.22;4891304;29;20203;-86
2023/06/28 08:23:00;;;;;;;2.63;0.82;;;;;;;23.44;46.38;101095.16;4855175;29;20053;-86
2023/06/28 08:25:27;;;;;;;2.70;0.65;;;;;;;23.76;46.46;101100.47;4873280;29;20061;-85
2023/06/28 08:27:53;;;;;;;3.65;0.60;;;;;;;24.40;43.94;101104.84;4853522;29;20048;-86
2023/06/28 08:30:20;;;;;;;2.60;0.93;;;;;;;24.28;44.04;101106.44;4872370;29;20076;-87
2023/06/28 08:32:50;;;;;;;4.00;0.75;;;;;;;24.39;42.94;101112.03;4884491;29;20041;-86
2023/06/28 08:35:17;;;;;;;1.30;0.50;;;;;;;24.76;42.91;101111.63;4888485;29;20073;-84
2023/06/28 08:37:45;;;;;;;3.08;1.05;;;;;;;25.06;40.90;101118.72;4853434;29;20067;-85
2023/06/28 08:40:14;;;;;;;1.83;0.70;;;;;;;25.74;40.08;101106.34;4875437;29;20041;-85
2023/06/28 08:42:42;;;;;;;5.30;1.20;;;;;;;26.21;40.27;101099.66;4861101;29;20045;-85
2023/06/28 08:45:10;;;;;;;2.60;1.08;;;;;;;26.77;38.20;101095.88;4852217;29;20041;-85
2023/06/28 08:47:38;;;;;;;3.05;0.85;;;;;;;26.52;39.82;101099.38;4854091;29;20069;-87
2023/06/28 08:50:05;;;;;;;3.03;1.25;;;;;;;27.28;38.59;101096.75;4853176;29;20045;-85
2023/06/28 08:52:36;;;;;;;1.45;0.88;;;;;;;27.83;36.58;101095.38;4878100;29;20089;-85
2023/06/28 08:55:03;;;;;;;2.28;0.88;;;;;;;28.64;33.96;101091.97;4865830;29;20045;-84
2023/06/28 08:57:31;;;;;;;2.47;0.60;;;;;;;28.91;34.15;101086.25;4871235;29;20053;-85
2023/06/28 08:59:58;;;;;;;3.42;0.95;;;;;;;29.10;34.00;101084.78;4865846;29;20040;-85
2023/06/28 09:02:30;;;;;;;4.45;1.10;;;;;;;29.62;32.79;101093.16;4860348;29;20045;-85
2023/06/28 09:04:57;;;;;;;4.20;0.80;;;;;;;29.23;31.79;101085.50;4846206;29;20084;-86
2023/06/28 09:07:24;;;;;;;1.83;0.90;;;;;;;28.88;33.02;101083.81;4882136;29;20330;-86
2023/06/28 09:09:52;;;;;;;1.50;0.65;;;;;;;28.89;32.63;101082.84;4845928;29;20050;-85
2023/06/28 09:12:20;;;;;;;1.13;0.57;;;;;;;29.44;33.10;101079.34;4845863;29;20080;-87
2023/06/28 09:14:47;;;;;;;3.22;0.77;;;;;;;29.11;33.21;101073.91;4844609;29;20045;-86
2023/06/28 09:17:14;;;;;;;2.45;0.88;;;;;;;29.27;33.03;101078.03;4851535;29;20414;-85
2023/06/28 09:19:42;;;;;;;2.55;0.82;;;;;;;30.01;31.24;101088.13;4849588;29;20059;-86
2023/06/28 09:22:11;;;;;;;1.70;0.65;;;;;;;30.26;30.09;101086.91;4865213;29;20055;-86
2023/06/28 09:24:39;;;;;;;2.83;0.80;;;;;;;30.40;30.40;101087.56;4849189;29;20049;-87
2023/06/28 09:27:08;;;;;;;2.55;1.05;;;;;;;30.54;30.34;101079.13;4844897;29;20144;-86
2023/06/28 09:29:36;;;;;;;1.35;0.75;;;;;;;30.57;30.30;101078.88;4850881;29;20084;-86
2023/06/28 09:32:02;;;;;;;2.30;1.27;;;;;;;30.47;30.59;101086.94;4860836;29;20069;-86
2023/06/28 09:34:29;;;;;;;2.53;0.60;;;;;;;31.12;29.71;101080.41;4854507;29;20048;-84
2023/06/28 09:36:59;;;;;;;1.25;0.73;;;;;;;30.86;30.44;101088.97;4849877;29;20053;-86
2023/06/28 09:39:26;;;;;;;2.05;1.02;;;;;;;31.55;29.55;101087.34;4864837;29;20093;-85
2023/06/28 09:41:54;;;;;;;3.10;0.55;;;;;;;32.23;28.36;101085.66;4847747;29;20053;-85
2023/06/28 09:44:30;;;;;;;4.38;1.20;;;;;;;32.51;27.76;101080.34;4868120;29;20085;-87
2023/06/28 09:47:07;;;;;;;2.30;1.02;;;;;;;32.52;27.79;101085.63;4850049;29;20052;-86
2023/06/28 09:49:37;;;;;;;3.38;0.80;;;;;;;32.43;28.06;101081.91;4861627;29;20059;-86
2023/06/28 09:52:06;;;;;;;1.83;0.68;;;;;;;33.17;27.34;101075.78;4867264;29;20613;-87
2023/06/28 09:54:44;;;;;;;2.35;2.15;;;;;;;32.96;27.95;101080.47;4864065;29;20045;-86
2023/06/28 09:59:56;;;;;;;1.38;0.95;;;;;;;30.05;31.30;101081.50;4870909;29;20513;-87
2023/06/28 10:02:30;;;;;;;2.28;1.13;;;;;;;30.42;30.69;101081.03;4882199;29;20063;-87
2023/06/28 10:04:59;;;;;;;2.72;0.98;;;;;;;29.33;32.52;101081.13;4873727;29;20085;-86
2023/06/28 10:07:27;;;;;;;2.88;1.30;;;;;;;30.61;31.13;101083.03;4887851;29;20109;-86
2023/06/28 10:09:54;;;;;;;2.20;1.15;;;;;;;32.03;28.53;101077.53;4862541;29;20077;-85
2023/06/28 10:12:25;;;;;;;2.63;0.98;;;;;;;32.31;27.73;101072.25;4873563;29;20048;-85
2023/06/28 10:15:01;;;;;;;1.48;0.90;;;;;;;32.64;27.86;101078.16;4872094;29;20053;-87
2023/06/28 10:17:33;;;;;;;3.03;0.95;;;;;;;32.25;27.81;101070.97;4870865;29;20033;-85
2023/06/28 10:20:02;;;;;;;2.08;0.65;;;;;;;29.87;31.27;101081.22;4860642;29;20049;-86
2023/06/28 10:22:30;;;;;;;1.77;0.90;;;;;;;29.30;32.76;101073.25;4848995;29;20116;-86
2023/06/28 10:24:58;;;;;;;2.30;0.60;;;;;;;30.52;30.65;101076.59;4885769;29;20049;-86
2023/06/28 10:27:26;;;;;;;1.00;0.80;;;;;;;31.37;29.76;101068.25;4857629;29;20053;-85
2023/06/28 10:29:55;;;;;;;2.92;1.30;;;;;;;32.08;27.59;101079.81;4870426;29;20112;-86
2023/06/28 10:32:25;;;;;;;1.63;0.98;;;;;;;32.17;28.11;101066.28;4861170;29;20149;-85
2023/06/28 10:34:52;;;;;;;2.25;0.98;;;;;;;32.77;27.55;101067.00;4863861;29;20063;-85
2023/06/28 10:37:24;;;;;;;1.65;0.90;;;;;;;32.91;27.25;101062.97;4858228;29;20049;-85
2023/06/28 10:39:54;;;;;;;1.85;0.60;;;;;;;33.93;26.18;101066.44;4865348;29;20488;-84
2023/06/28 10:42:22;;;;;;;1.63;1.00;;;;;;;33.30;27.21;101068.19;4889042;29;20053;-84
2023/06/28 10:44:57;;;;;;;1.88;1.05;;;;;;;31.61;29.60;101064.28;4867780;29;20042;-87
2023/06/28 10:47:25;;;;;;;2.33;1.00;;;;;;;29.95;32.25;101073.31;4826787;29;20900;-86
2023/06/28 10:50:26;;;;;;;2.85;1.20;;;;;;;28.06;35.00;101076.69;4855338;29;20142;-86
2023/06/28 10:52:57;;;;;;;2.72;1.02;;;;;;;27.89;35.65;101086.84;4863294;29;20046;-86
2023/06/28 10:55:38;;;;;;;0.82;0.70;;;;;;;29.65;31.61;101072.19;4859813;29;20421;-84
2023/06/28 10:58:10;;;;;;;2.05;0.70;;;;;;;31.44;28.57;101066.66;4847611;29;20045;-86
2023/06/28 11:00:47;;;;;;;1.70;1.00;;;;;;;32.48;27.83;101076.06;4873024;29;20041;-86
2023/06/28 11:03:15;;;;;;;1.45;0.80;;;;;;;33.51;26.35;101076.03;4873755;29;20052;-88
2023/06/28 11:05:53;;;;;;;3.05;1.00;;;;;;;34.41;24.77;101067.00;4854463;29;20060;-87
2023/06/28 11:08:22;;;;;;;1.40;1.02;;;;;;;35.16;24.49;101068.19;4884989;29;20057;-86
2023/06/28 11:10:55;;;;;;;2.97;1.00;;;;;;;35.14;25.08;101073.81;4887579;29;20111;-88
2023/06/28 11:13:41;;;;;;;2.17;0.88;;;;;;;36.18;24.18;101076.16;4848001;29;20565;-86
2023/06/28 11:16:11;;;;;;;1.17;0.50;;;;;;;37.13;23.42;101069.97;4869534;29;20060;-86
2023/06/28 11:18:38;;;;;;;3.83;0.85;;;;;;;37.30;23.04;101059.81;4858594;29;20361;-86
2023/06/28 11:21:09;;;;;;;3.05;1.20;;;;;;;35.14;24.20;101071.09;4885601;29;20061;-85
2023/06/28 11:23:43;;;;;;;2.63;0.90;;;;;;;32.08;28.34;101071.69;4859525;29;20298;-86
2023/06/28 11:26:17;;;;;;;1.40;0.90;;;;;;;30.06;30.01;101071.56;4846789;29;20509;-83